Time;durP1;ratioP1;P1;durP2;ratioP2;P2;SDS_P1;SDS_P2;PMS_P1;PMS_P2;Temp;Humidity;BMP_temperature;BMP_pressure;BME280_temperature;BME280_humidity;BME280_pressure;Samples;Min_cycle;Max_cycle;Signal;HPM_P1;HPM_P2
2023/04/26 00:01:52;;;;;;;4.97;3.00;;;7.90;76.20;;;;;;5073509;28;20878;-56
2023/04/26 00:04:18;;;;;;;5.73;3.33;;;7.90;77.80;;;;;;5073134;28;21003;-56
2023/04/26 00:06:48;;;;;;;5.43;3.70;;;7.90;79.70;;;;;;5073521;28;20448;-56
2023/04/26 00:09:14;;;;;;;9.20;3.20;;;8.00;79.80;;;;;;5073073;28;20559;-56
2023/04/26 00:11:41;;;;;;;3.70;3.40;;;8.00;79.90;;;;;;5073417;28;20452;-56
2023/04/26 00:14:08;;;;;;;9.20;3.70;;;8.00;80.00;;;;;;5073293;28;20478;-56
2023/04/26 00:16:35;;;;;;;4.53;3.13;;;8.00;80.40;;;;;;5073332;28;20448;-56
2023/04/26 00:19:02;;;;;;;5.07;3.47;;;8.00;80.30;;;;;;5073355;28;20476;-56
2023/04/26 00:21:30;;;;;;;4.50;3.77;;;8.00;79.80;;;;;;5073313;28;20536;-56
2023/04/26 00:23:58;;;;;;;5.80;4.20;;;8.00;80.10;;;;;;5073274;28;20534;-56
2023/04/26 00:26:25;;;;;;;8.03;3.10;;;8.00;80.10;;;;;;5073242;28;20483;-56
2023/04/26 00:28:51;;;;;;;6.37;3.60;;;7.90;80.10;;;;;;5072968;28;20445;-56
2023/04/26 00:31:18;;;;;;;4.47;3.67;;;7.90;80.00;;;;;;5072931;28;20946;-56
2023/04/26 00:33:45;;;;;;;6.80;3.77;;;7.90;80.50;;;;;;5072776;28;20841;-56
2023/04/26 00:36:13;;;;;;;7.97;4.27;;;7.90;80.50;;;;;;5072940;28;20451;-56
2023/04/26 00:38:40;;;;;;;5.93;3.63;;;7.90;80.40;;;;;;5073161;28;20532;-56
2023/04/26 00:41:08;;;;;;;5.27;3.40;;;7.90;80.20;;;;;;5073100;28;20591;-56
2023/04/26 00:43:34;;;;;;;4.70;3.70;;;7.90;80.60;;;;;;5072899;28;20992;-56
2023/04/26 00:46:01;;;;;;;6.93;3.90;;;7.90;80.90;;;;;;5073107;28;20448;-56
2023/04/26 00:48:28;;;;;;;5.53;3.90;;;7.80;80.80;;;;;;5072721;28;20965;-56
2023/04/26 00:50:55;;;;;;;5.73;5.10;;;7.80;81.10;;;;;;5073117;28;20558;-56
2023/04/26 00:53:23;;;;;;;6.97;4.37;;;7.80;81.40;;;;;;5073040;28;20465;-56
2023/04/26 00:55:50;;;;;;;4.50;3.60;;;7.80;81.50;;;;;;5073025;28;20464;-56
2023/04/26 00:58:18;;;;;;;6.47;3.50;;;7.70;81.60;;;;;;5072982;28;20498;-56
2023/04/26 01:00:45;;;;;;;5.70;4.50;;;7.70;81.80;;;;;;5072908;28;20580;-56
2023/04/26 01:03:11;;;;;;;5.00;4.20;;;7.70;81.70;;;;;;5072916;28;20541;-56
2023/04/26 01:05:38;;;;;;;5.07;4.00;;;7.60;81.80;;;;;;5072941;28;20457;-56
2023/04/26 01:08:06;;;;;;;10.87;4.00;;;7.70;82.40;;;;;;5074425;28;20460;-56
2023/04/26 01:10:35;;;;;;;5.70;3.93;;;7.60;82.40;;;;;;5076757;28;20448;-56
2023/04/26 01:13:03;;;;;;;5.07;3.97;;;7.60;83.20;;;;;;5076652;28;20449;-56
2023/04/26 01:15:32;;;;;;;6.57;4.97;;;7.60;83.30;;;;;;5076661;28;20480;-56
2023/04/26 01:17:59;;;;;;;6.30;3.87;;;7.60;83.20;;;;;;5076621;28;20866;-56
2023/04/26 01:20:25;;;;;;;7.07;4.53;;;7.60;82.80;;;;;;5076645;28;20476;-56
2023/04/26 01:22:53;;;;;;;7.83;4.77;;;7.60;82.80;;;;;;5077240;28;20483;-56
2023/04/26 01:25:21;;;;;;;5.27;3.50;;;7.60;82.80;;;;;;5076615;28;20455;-56
2023/04/26 01:27:48;;;;;;;4.30;3.90;;;7.60;82.40;;;;;;5076253;28;20818;-56
2023/04/26 01:30:14;;;;;;;4.10;3.67;;;7.50;82.30;;;;;;5076242;28;20448;-56
2023/04/26 01:32:41;;;;;;;8.13;4.10;;;7.50;82.30;;;;;;5077048;28;20798;-56
2023/04/26 01:35:08;;;;;;;6.40;4.27;;;7.50;82.20;;;;;;5076112;28;20538;-56
2023/04/26 01:37:35;;;;;;;10.40;3.80;;;7.50;82.20;;;;;;5075791;28;20860;-56
2023/04/26 01:40:05;;;;;;;6.90;4.50;;;7.40;82.00;;;;;;5076009;28;20480;-56
2023/04/26 01:42:32;;;;;;;8.83;3.83;;;7.40;81.90;;;;;;5076077;28;20502;-57
2023/04/26 01:44:58;;;;;;;9.43;3.77;;;7.30;82.00;;;;;;5076001;28;20468;-56
2023/04/26 01:47:26;;;;;;;7.07;4.27;;;7.30;82.10;;;;;;5076139;28;20440;-56
2023/04/26 01:49:53;;;;;;;6.80;4.30;;;7.30;82.30;;;;;;5076435;28;20926;-56
2023/04/26 01:52:20;;;;;;;7.60;4.03;;;7.20;82.10;;;;;;5078916;28;20456;-57
2023/04/26 01:54:46;;;;;;;10.17;4.93;;;7.20;82.10;;;;;;5077483;28;20622;-57
2023/04/26 01:57:15;;;;;;;6.30;4.27;;;7.20;82.40;;;;;;5076446;28;20437;-56
2023/04/26 01:59:41;;;;;;;6.83;3.63;;;7.10;82.40;;;;;;5076236;28;20530;-56
2023/04/26 02:02:08;;;;;;;5.77;3.90;;;7.10;82.90;;;;;;5076076;28;20483;-56
2023/04/26 02:04:35;;;;;;;5.40;4.03;;;7.00;83.10;;;;;;5075782;28;20464;-56
2023/04/26 02:07:02;;;;;;;4.90;4.37;;;7.00;83.00;;;;;;5075378;28;20460;-56
2023/04/26 02:09:28;;;;;;;7.93;4.50;;;6.90;83.40;;;;;;5075208;28;20461;-56
2023/04/26 02:11:55;;;;;;;9.13;4.50;;;6.90;83.40;;;;;;5075631;28;20477;-56
2023/04/26 02:14:23;;;;;;;6.60;4.30;;;6.90;83.40;;;;;;5075441;28;20468;-56
2023/04/26 02:16:50;;;;;;;5.63;4.50;;;6.90;83.30;;;;;;5075472;28;20814;-56
2023/04/26 02:19:17;;;;;;;8.57;5.27;;;6.80;83.20;;;;;;5074878;28;20441;-56
2023/04/26 02:21:52;;;;;;;7.20;4.40;;;6.80;83.20;;;;;;5075250;28;20484;-56
2023/04/26 02:24:18;;;;;;;4.70;3.83;;;6.80;83.20;;;;;;5075309;28;20491;-56
2023/04/26 02:26:45;;;;;;;9.50;4.00;;;6.80;83.30;;;;;;5075241;28;20452;-56
2023/04/26 02:29:12;;;;;;;5.33;4.40;;;6.80;83.10;;;;;;5075228;28;20452;-56
2023/04/26 02:31:40;;;;;;;7.83;4.57;;;6.80;83.30;;;;;;5075115;28;20441;-56
2023/04/26 02:34:07;;;;;;;5.07;4.37;;;6.80;83.30;;;;;;5075029;28;20475;-56
2023/04/26 02:36:34;;;;;;;6.17;4.43;;;6.80;83.50;;;;;;5074714;28;20864;-56
2023/04/26 02:39:01;;;;;;;6.60;4.07;;;6.80;83.60;;;;;;5074939;28;20451;-56
2023/04/26 02:41:28;;;;;;;9.10;4.47;;;6.70;83.70;;;;;;5074905;28;20488;-56
2023/04/26 02:43:54;;;;;;;6.50;4.53;;;6.70;83.70;;;;;;5074892;28;20476;-56
2023/04/26 02:46:21;;;;;;;4.77;3.60;;;6.60;83.80;;;;;;5074846;28;20453;-56
2023/04/26 02:48:49;;;;;;;7.23;4.27;;;6.50;83.80;;;;;;5074839;28;20538;-56
2023/04/26 02:51:16;;;;;;;5.73;3.47;;;6.50;84.10;;;;;;5074765;28;20879;-56
2023/04/26 02:53:43;;;;;;;5.80;4.53;;;6.40;84.40;;;;;;5074665;28;20465;-56
2023/04/26 02:56:10;;;;;;;5.93;4.13;;;6.40;84.60;;;;;;5074767;28;20464;-56
2023/04/26 02:58:36;;;;;;;5.30;4.63;;;6.40;85.20;;;;;;5074625;28;20453;-56
2023/04/26 03:01:04;;;;;;;4.03;3.70;;;6.30;85.40;;;;;;5074655;28;20488;-56
2023/04/26 03:03:31;;;;;;;7.33;5.17;;;6.20;85.60;;;;;;5074474;28;20481;-55
2023/04/26 03:05:59;;;;;;;10.73;4.93;;;6.20;85.80;;;;;;5074424;28;20448;-56
2023/04/26 03:08:26;;;;;;;6.43;4.30;;;6.20;86.10;;;;;;5074103;28;20460;-55
2023/04/26 03:10:53;;;;;;;4.37;3.93;;;6.20;86.30;;;;;;5074399;28;20448;-55
2023/04/26 03:13:19;;;;;;;5.97;4.47;;;6.20;86.20;;;;;;5073933;28;20970;-56
2023/04/26 03:15:46;;;;;;;6.27;4.60;;;6.10;86.30;;;;;;5074267;28;20444;-55
2023/04/26 03:18:13;;;;;;;5.30;4.80;;;6.10;86.30;;;;;;5074274;28;20498;-55
2023/04/26 03:20:40;;;;;;;5.17;4.03;;;6.10;86.30;;;;;;5073729;28;20979;-55
2023/04/26 03:23:08;;;;;;;7.90;4.53;;;6.10;86.60;;;;;;5074045;28;20468;-56
2023/04/26 03:25:35;;;;;;;11.00;5.10;;;6.10;86.80;;;;;;5074100;28;20809;-56
2023/04/26 03:28:02;;;;;;;8.13;5.40;;;6.10;86.60;;;;;;5073960;28;20452;-55
2023/04/26 03:30:29;;;;;;;9.13;5.20;;;6.10;86.80;;;;;;5073311;28;20441;-55
2023/04/26 03:32:56;;;;;;;6.33;5.00;;;6.10;86.80;;;;;;5073951;28;20544;-55
2023/04/26 03:35:23;;;;;;;6.17;4.90;;;6.00;86.90;;;;;;5073777;28;20448;-56
2023/04/26 03:37:49;;;;;;;9.13;4.63;;;6.00;87.30;;;;;;5073976;28;20494;-56
2023/04/26 03:40:18;;;;;;;15.00;5.77;;;5.90;87.30;;;;;;5073497;28;21016;-56
2023/04/26 03:42:44;;;;;;;7.70;4.77;;;5.90;87.60;;;;;;5073882;28;20448;-56
2023/04/26 03:45:11;;;;;;;7.90;5.27;;;5.80;88.00;;;;;;5073756;28;20441;-56
2023/04/26 03:47:38;;;;;;;11.50;5.60;;;5.80;88.30;;;;;;5073739;28;20449;-56
2023/04/26 03:50:06;;;;;;;11.63;5.80;;;5.80;88.60;;;;;;5073774;28;20448;-56
2023/04/26 03:52:33;;;;;;;15.10;5.90;;;5.70;88.60;;;;;;5073695;28;20448;-56
2023/04/26 03:55:00;;;;;;;9.10;5.50;;;5.80;88.90;;;;;;5073681;28;20468;-57
2023/04/26 03:57:28;;;;;;;8.83;6.13;;;5.80;88.80;;;;;;5073386;28;20938;-56
2023/04/26 03:59:55;;;;;;;10.33;6.27;;;5.80;88.90;;;;;;5073478;28;20460;-56
2023/04/26 04:02:22;;;;;;;8.70;6.10;;;5.80;88.90;;;;;;5074397;28;20452;-56
2023/04/26 04:04:49;;;;;;;7.47;6.20;;;5.80;88.90;;;;;;5073251;28;21009;-56
2023/04/26 04:07:16;;;;;;;8.47;6.23;;;5.80;88.90;;;;;;5073438;28;20453;-56
2023/04/26 04:09:43;;;;;;;9.20;6.30;;;5.80;89.20;;;;;;5073522;28;20461;-56
2023/04/26 04:12:09;;;;;;;8.70;6.40;;;5.80;88.90;;;;;;5073490;28;20449;-56
2023/04/26 04:14:37;;;;;;;8.10;5.63;;;5.80;88.90;;;;;;5073027;28;20978;-56
2023/04/26 04:17:04;;;;;;;8.40;5.17;;;5.80;88.70;;;;;;5073414;28;20448;-56
2023/04/26 04:19:31;;;;;;;8.40;5.33;;;5.90;89.20;;;;;;5073460;28;20486;-56
2023/04/26 04:21:57;;;;;;;7.70;5.30;;;5.80;88.90;;;;;;5073044;28;20484;-56
2023/04/26 04:24:24;;;;;;;7.20;5.17;;;5.80;89.30;;;;;;5073356;28;20468;-56
2023/04/26 04:26:51;;;;;;;7.23;5.67;;;5.80;89.40;;;;;;5073402;28;20543;-56
2023/04/26 04:29:18;;;;;;;7.40;5.80;;;5.70;89.30;;;;;;5073314;28;20448;-56
2023/04/26 04:31:46;;;;;;;8.87;5.60;;;5.70;89.40;;;;;;5073512;28;20445;-56
2023/04/26 04:34:13;;;;;;;9.30;5.53;;;5.70;89.70;;;;;;5073137;28;20469;-56
2023/04/26 04:36:40;;;;;;;8.30;5.93;;;5.70;90.00;;;;;;5074085;28;20474;-56
2023/04/26 04:39:11;;;;;;;9.27;6.27;;;5.60;89.80;;;;;;5073815;28;20453;-56
2023/04/26 04:41:37;;;;;;;8.80;5.60;;;5.60;90.10;;;;;;5075977;28;20473;-57
2023/04/26 04:44:04;;;;;;;10.43;6.93;;;5.60;90.10;;;;;;5081859;28;20460;-56
2023/04/26 04:46:31;;;;;;;9.40;6.10;;;5.60;90.30;;;;;;5079578;28;20449;-56
2023/04/26 04:49:00;;;;;;;9.07;6.43;;;5.60;90.40;;;;;;5079552;28;20451;-56
2023/04/26 04:51:27;;;;;;;11.47;6.77;;;5.60;90.40;;;;;;5078111;28;20464;-56
2023/04/26 04:53:54;;;;;;;11.63;6.57;;;5.60;90.60;;;;;;5077689;28;20500;-56
2023/04/26 04:56:21;;;;;;;11.77;6.83;;;5.70;90.80;;;;;;5077722;28;20488;-56
2023/04/26 04:58:48;;;;;;;20.80;6.90;;;5.70;90.90;;;;;;5077019;28;20461;-56
2023/04/26 05:01:14;;;;;;;9.07;5.63;;;5.70;90.90;;;;;;5077040;28;20476;-56
2023/04/26 05:03:41;;;;;;;9.73;6.90;;;5.70;90.90;;;;;;5076835;28;20719;-56
2023/04/26 05:06:09;;;;;;;11.07;7.60;;;5.70;91.10;;;;;;5076960;28;20513;-56
2023/04/26 05:08:36;;;;;;;11.27;7.23;;;5.70;91.60;;;;;;5076506;28;20456;-56
2023/04/26 05:11:02;;;;;;;20.07;7.90;;;5.60;91.40;;;;;;5076402;28;20997;-56
2023/04/26 05:13:29;;;;;;;16.07;8.03;;;5.60;91.60;;;;;;5076367;28;20468;-56
2023/04/26 05:15:56;;;;;;;12.80;8.10;;;5.60;91.90;;;;;;5077080;28;20451;-56
2023/04/26 05:18:22;;;;;;;14.90;7.40;;;5.60;92.10;;;;;;5076638;28;20444;-56
2023/04/26 05:20:49;;;;;;;21.37;9.30;;;5.60;92.30;;;;;;5076412;28;20480;-57
2023/04/26 05:23:17;;;;;;;15.70;9.37;;;5.70;92.70;;;;;;5076449;28;20593;-56
2023/04/26 05:25:44;;;;;;;12.50;8.40;;;5.70;93.10;;;;;;5075999;28;20972;-56
2023/04/26 05:28:12;;;;;;;21.30;9.57;;;5.80;93.30;;;;;;5076042;28;20875;-56
2023/04/26 05:30:39;;;;;;;19.73;9.70;;;5.90;93.60;;;;;;5076327;28;20466;-56
2023/04/26 05:33:06;;;;;;;24.23;11.20;;;5.90;93.80;;;;;;5076257;28;20568;-57
2023/04/26 05:35:33;;;;;;;18.77;8.67;;;6.00;93.90;;;;;;5076103;28;20452;-56
2023/04/26 05:38:00;;;;;;;14.40;9.87;;;6.10;94.10;;;;;;5076213;28;20459;-56
2023/04/26 05:40:28;;;;;;;17.50;9.23;;;6.10;94.00;;;;;;5076080;28;20445;-56
2023/04/26 05:42:55;;;;;;;16.03;8.57;;;6.20;94.20;;;;;;5075858;28;20444;-56
2023/04/26 05:45:21;;;;;;;18.07;8.93;;;6.40;94.40;;;;;;5075674;28;20874;-56
2023/04/26 05:47:48;;;;;;;18.40;9.37;;;6.40;94.40;;;;;;5076007;28;20456;-56
2023/04/26 05:50:15;;;;;;;18.43;9.83;;;6.50;94.40;;;;;;5075963;28;20449;-56
2023/04/26 05:52:42;;;;;;;17.13;9.60;;;6.50;94.40;;;;;;5075132;28;20946;-56
2023/04/26 05:55:09;;;;;;;16.80;8.77;;;6.60;94.50;;;;;;5075186;28;20464;-56
2023/04/26 05:57:37;;;;;;;20.93;11.30;;;6.70;94.40;;;;;;5075493;28;20938;-56
2023/04/26 06:00:05;;;;;;;16.17;10.70;;;6.80;94.30;;;;;;5075770;28;20448;-56
2023/04/26 06:02:32;;;;;;;24.90;9.70;;;6.90;94.40;;;;;;5074126;28;20912;-56
2023/04/26 06:04:59;;;;;;;19.00;10.80;;;7.00;94.40;;;;;;5075577;28;20472;-56
2023/04/26 06:07:25;;;;;;;23.63;10.37;;;7.10;94.20;;;;;;5075306;28;20522;-56
2023/04/26 06:09:52;;;;;;;14.90;8.07;;;7.20;94.20;;;;;;5075605;28;20524;-56
2023/04/26 06:12:19;;;;;;;22.30;10.67;;;7.30;94.10;;;;;;5075515;28;20441;-56
2023/04/26 06:14:47;;;;;;;27.37;9.03;;;7.30;93.70;;;;;;5075448;28;20480;-56
2023/04/26 06:17:13;;;;;;;20.53;10.67;;;7.40;93.80;;;;;;5075426;28;20451;-56
2023/04/26 06:19:40;;;;;;;18.53;10.97;;;7.50;93.50;;;;;;5075434;28;20480;-56
2023/04/26 06:22:07;;;;;;;20.10;9.93;;;7.60;93.50;;;;;;5075032;28;21009;-56
2023/04/26 06:24:34;;;;;;;13.90;9.00;;;7.70;93.40;;;;;;5075184;28;20460;-56
2023/04/26 06:27:00;;;;;;;14.10;8.80;;;7.80;93.00;;;;;;5074921;28;20445;-56
2023/04/26 06:29:27;;;;;;;12.97;8.60;;;7.90;92.40;;;;;;5075232;28;20448;-56
2023/04/26 06:31:55;;;;;;;15.70;9.60;;;8.00;91.80;;;;;;5074848;28;20941;-56
2023/04/26 06:34:22;;;;;;;17.50;9.23;;;8.10;92.00;;;;;;5075020;28;20833;-57
2023/04/26 06:36:49;;;;;;;11.60;8.43;;;8.30;91.60;;;;;;5075029;28;20449;-56
2023/04/26 06:39:16;;;;;;;15.10;8.70;;;8.40;91.20;;;;;;5075405;28;20916;-56
2023/04/26 06:41:43;;;;;;;11.77;8.30;;;8.50;90.80;;;;;;5074626;28;20916;-56
2023/04/26 06:44:10;;;;;;;15.07;7.50;;;8.70;90.70;;;;;;5074813;28;20497;-56
2023/04/26 06:46:36;;;;;;;10.80;7.57;;;8.80;90.40;;;;;;5074852;28;20444;-56
2023/04/26 06:49:04;;;;;;;11.53;7.77;;;9.00;90.00;;;;;;5074795;28;20449;-56
2023/04/26 06:51:31;;;;;;;9.83;7.70;;;9.10;89.20;;;;;;5074755;28;20452;-56
2023/04/26 06:53:59;;;;;;;13.47;7.10;;;9.30;88.70;;;;;;5074627;28;20502;-56
2023/04/26 06:56:26;;;;;;;13.50;6.70;;;9.50;88.90;;;;;;5074597;28;20530;-56
2023/04/26 06:59:00;;;;;;;9.17;6.70;;;9.60;87.80;;;;;;5074653;28;20863;-56
2023/04/26 07:01:28;;;;;;;6.80;5.60;;;9.80;86.10;;;;;;5074518;28;20634;-56
2023/04/26 07:03:55;;;;;;;12.83;8.17;;;9.90;85.20;;;;;;5074402;28;20502;-56
2023/04/26 07:06:24;;;;;;;8.97;5.23;;;10.00;83.70;;;;;;5074410;28;20636;-56
2023/04/26 07:08:50;;;;;;;12.57;7.40;;;10.20;83.60;;;;;;5074038;28;20502;-56
2023/04/26 07:11:17;;;;;;;8.13;6.53;;;10.40;83.00;;;;;;5074339;28;20850;-56
2023/04/26 07:13:44;;;;;;;12.53;6.30;;;10.50;82.00;;;;;;5073906;28;20978;-56
2023/04/26 07:16:10;;;;;;;10.67;7.03;;;10.70;80.60;;;;;;5073987;28;20485;-56
2023/04/26 07:18:37;;;;;;;10.20;6.20;;;10.80;79.60;;;;;;5074191;28;20455;-56
2023/04/26 07:21:04;;;;;;;10.23;6.20;;;10.90;79.50;;;;;;5074063;28;20479;-56
2023/04/26 07:23:32;;;;;;;9.17;6.13;;;11.00;78.20;;;;;;5073794;28;20822;-56
2023/04/26 07:26:00;;;;;;;9.40;6.30;;;11.10;77.00;;;;;;5074136;28;20445;-56
2023/04/26 07:28:26;;;;;;;17.23;5.37;;;11.20;75.30;;;;;;5073982;28;20466;-56
2023/04/26 07:30:53;;;;;;;16.93;7.10;;;11.40;74.30;;;;;;5074021;28;20506;-55
2023/04/26 07:33:20;;;;;;;13.17;6.57;;;11.50;74.20;;;;;;5073873;28;20461;-56
2023/04/26 07:35:54;;;;;;;13.67;6.47;;;11.50;74.40;;;;;;5073919;28;20456;-56
2023/04/26 07:38:21;;;;;;;12.00;6.20;;;11.60;75.00;;;;;;5073669;28;20468;-56
2023/04/26 07:40:49;;;;;;;11.73;5.80;;;11.70;74.10;;;;;;5073852;28;20456;-56
2023/04/26 07:43:16;;;;;;;12.10;5.53;;;11.70;72.40;;;;;;5074507;28;20512;-56
2023/04/26 07:45:43;;;;;;;11.00;5.40;;;11.80;72.10;;;;;;5075242;28;20460;-56
2023/04/26 07:48:09;;;;;;;9.30;4.37;;;11.90;71.80;;;;;;5074677;28;20444;-56
2023/04/26 07:50:36;;;;;;;6.77;3.90;;;12.00;70.60;;;;;;5074175;28;20479;-57
2023/04/26 07:53:03;;;;;;;10.50;4.90;;;12.10;69.10;;;;;;5074398;28;20448;-56
2023/04/26 07:55:29;;;;;;;12.00;4.77;;;12.20;67.90;;;;;;5073710;28;20791;-56
2023/04/26 07:57:58;;;;;;;10.70;5.47;;;12.30;67.60;;;;;;5073822;28;20460;-56
2023/04/26 08:00:24;;;;;;;7.00;4.83;;;12.30;66.30;;;;;;5073717;28;20456;-55
2023/04/26 08:02:51;;;;;;;8.87;4.50;;;12.40;67.20;;;;;;5073437;28;20897;-56
2023/04/26 08:05:18;;;;;;;9.23;4.20;;;12.50;68.90;;;;;;5073577;28;20453;-56
2023/04/26 08:07:45;;;;;;;10.23;5.10;;;12.60;67.10;;;;;;5073136;28;20954;-56
2023/04/26 08:10:11;;;;;;;11.70;5.70;;;12.70;64.40;;;;;;5073404;28;20850;-56
2023/04/26 08:12:38;;;;;;;10.10;5.50;;;12.80;64.40;;;;;;5073741;28;20516;-56
2023/04/26 08:15:08;;;;;;;9.60;4.90;;;13.00;64.40;;;;;;5073258;28;20843;-56
2023/04/26 08:17:34;;;;;;;7.97;5.00;;;13.20;63.80;;;;;;5073604;28;20479;-56
2023/04/26 08:20:01;;;;;;;9.07;4.47;;;13.30;62.40;;;;;;5073546;28;20437;-57
2023/04/26 08:22:30;;;;;;;13.50;4.37;;;13.50;62.20;;;;;;5074411;28;20506;-56
2023/04/26 08:24:57;;;;;;;10.77;3.93;;;13.60;59.60;;;;;;5073294;28;20473;-56
2023/04/26 08:27:23;;;;;;;6.80;4.27;;;13.70;59.90;;;;;;5073358;28;20494;-56
2023/04/26 08:29:50;;;;;;;5.40;3.43;;;13.80;59.80;;;;;;5073015;28;20957;-56
2023/04/26 08:32:18;;;;;;;6.13;3.37;;;13.80;59.00;;;;;;5073945;28;20452;-56
2023/04/26 08:34:45;;;;;;;7.40;3.50;;;13.80;57.50;;;;;;5073178;28;20473;-56
2023/04/26 08:37:12;;;;;;;9.40;4.00;;;13.70;57.50;;;;;;5072862;28;20961;-56
2023/04/26 08:39:39;;;;;;;8.00;2.83;;;13.60;58.10;;;;;;5073974;28;20444;-56
2023/04/26 08:42:13;;;;;;;10.07;5.23;;;13.50;56.50;;;;;;5073026;28;20472;-56
2023/04/26 08:44:42;;;;;;;6.27;3.90;;;13.60;55.60;;;;;;5073069;28;20475;-56
2023/04/26 08:47:16;;;;;;;10.03;4.10;;;13.50;56.00;;;;;;5073095;28;20445;-56
2023/04/26 08:49:46;;;;;;;7.13;3.80;;;13.60;57.30;;;;;;5073092;28;20801;-58
2023/04/26 08:52:15;;;;;;;7.87;3.47;;;13.70;57.30;;;;;;5073598;28;20425;-56
2023/04/26 08:54:42;;;;;;;8.93;4.13;;;13.80;55.80;;;;;;5072998;28;20481;-56
2023/04/26 08:57:09;;;;;;;6.43;2.70;;;14.00;56.40;;;;;;5072958;28;20502;-56
2023/04/26 08:59:37;;;;;;;7.50;3.10;;;14.20;54.20;;;;;;5073002;28;20875;-57
2023/04/26 09:02:05;;;;;;;6.63;3.80;;;14.40;54.30;;;;;;5072951;28;20484;-56
2023/04/26 09:04:32;;;;;;;8.87;3.80;;;14.50;52.70;;;;;;5072801;28;20471;-56
2023/04/26 09:07:02;;;;;;;6.57;3.27;;;14.60;52.70;;;;;;5072942;28;20453;-56
2023/04/26 09:09:33;;;;;;;9.00;2.50;;;14.80;51.60;;;;;;5072453;28;20464;-57
2023/04/26 09:12:02;;;;;;;8.73;2.70;;;14.90;51.50;;;;;;5072965;28;20428;-57
2023/04/26 09:14:29;;;;;;;7.33;2.63;;;15.10;51.20;;;;;;5072698;28;20479;-57
2023/04/26 09:16:55;;;;;;;10.77;2.63;;;15.20;49.50;;;;;;5072837;28;20510;-57
2023/04/26 09:19:35;;;;;;;7.23;2.93;;;15.10;49.40;;;;;;5072761;28;20440;-57
2023/04/26 09:22:05;;;;;;;3.80;2.07;;;15.10;49.00;;;;;;5072472;28;21028;-56
2023/04/26 09:24:46;;;;;;;7.80;3.33;;;15.10;49.20;;;;;;5072322;28;20465;-56
2023/04/26 09:27:13;;;;;;;6.43;2.60;;;15.20;48.40;;;;;;5072688;28;20461;-56
2023/04/26 09:29:41;;;;;;;9.23;2.60;;;15.20;48.30;;;;;;5075909;28;20452;-56
2023/04/26 09:32:08;;;;;;;10.13;2.60;;;15.10;49.20;;;;;;5076013;28;20812;-56
2023/04/26 09:34:45;;;;;;;6.27;2.57;;;15.20;48.30;;;;;;5076112;28;20472;-56
2023/04/26 09:37:13;;;;;;;6.70;3.13;;;15.50;48.70;;;;;;5075917;28;20902;-56
2023/04/26 09:39:41;;;;;;;6.50;2.90;;;16.00;49.10;;;;;;5076179;28;20480;-56
2023/04/26 09:42:10;;;;;;;6.30;2.50;;;16.60;49.30;;;;;;5075972;28;20484;-56
2023/04/26 09:44:37;;;;;;;6.60;2.50;;;16.90;45.10;;;;;;5075610;28;20985;-56
2023/04/26 09:47:05;;;;;;;4.43;1.80;;;17.10;42.90;;;;;;5075786;28;20446;-56
2023/04/26 09:49:33;;;;;;;5.93;2.03;;;17.40;42.70;;;;;;5075914;28;20464;-56
2023/04/26 09:52:01;;;;;;;7.37;2.83;;;17.70;42.20;;;;;;5075891;28;20993;-56
2023/04/26 09:54:40;;;;;;;6.63;2.60;;;17.80;39.90;;;;;;5075886;28;20472;-56
2023/04/26 09:57:07;;;;;;;4.57;2.50;;;17.90;40.30;;;;;;5075847;28;20527;-56
2023/04/26 09:59:45;;;;;;;3.27;1.87;;;18.10;41.40;;;;;;5075840;28;20440;-56
2023/04/26 10:02:17;;;;;;;7.37;2.00;;;18.20;39.80;;;;;;5075631;28;20468;-56
2023/04/26 10:04:46;;;;;;;2.23;1.47;;;18.10;39.50;;;;;;5075683;28;20476;-56
2023/04/26 10:07:14;;;;;;;8.10;1.90;;;18.00;39.60;;;;;;5075526;28;20543;-56
2023/04/26 10:09:43;;;;;;;4.30;1.40;;;18.00;39.70;;;;;;5075579;28;20440;-56
2023/04/26 10:12:10;;;;;;;5.03;2.10;;;18.00;38.80;;;;;;5075551;28;20448;-56
2023/04/26 10:14:37;;;;;;;5.70;1.70;;;18.10;38.30;;;;;;5075397;28;20968;-57
2023/04/26 10:17:05;;;;;;;5.43;2.70;;;18.60;38.80;;;;;;5075164;28;20440;-56
2023/04/26 10:19:33;;;;;;;5.33;2.23;;;19.30;38.70;;;;;;5075394;28;20467;-57
2023/04/26 10:22:04;;;;;;;11.33;2.50;;;20.10;37.80;;;;;;5075060;28;20445;-57
2023/04/26 10:24:31;;;;;;;5.50;2.00;;;21.00;36.60;;;;;;5075313;28;20490;-57
2023/04/26 10:27:01;;;;;;;5.33;2.20;;;21.50;33.90;;;;;;5075319;28;20444;-57
2023/04/26 10:30:06;;;;;;;5.03;2.60;;;21.80;33.30;;;;;;5076292;28;20570;-57
2023/04/26 10:32:33;;;;;;;5.83;2.70;;;21.70;32.20;;;;;;5075285;28;20497;-57
2023/04/26 10:35:11;;;;;;;6.70;2.00;;;21.10;30.80;;;;;;5075146;28;20468;-57
2023/04/26 10:37:37;;;;;;;5.40;2.80;;;20.70;32.00;;;;;;5076211;28;20444;-57
2023/04/26 10:40:24;;;;;;;5.60;2.60;;;20.40;33.40;;;;;;5075918;28;21041;-57
2023/04/26 10:43:27;;;;;;;4.40;2.43;;;20.10;34.50;;;;;;5075532;28;20484;-57
2023/04/26 10:45:55;;;;;;;9.00;2.43;;;19.80;33.40;;;;;;5074769;28;20831;-56
2023/04/26 10:48:28;;;;;;;3.43;2.60;;;19.50;33.80;;;;;;5074946;28;20548;-56
2023/04/26 10:51:11;;;;;;;6.17;2.80;;;19.30;34.80;;;;;;5074934;28;20490;-57
2023/04/26 10:53:59;;;;;;;8.60;2.67;;;19.00;34.50;;;;;;5074771;28;20469;-56
2023/04/26 10:56:51;;;;;;;3.90;2.10;;;18.80;35.00;;;;;;5074773;28;20421;-56
2023/04/26 10:59:22;;;;;;;4.67;2.43;;;18.70;36.20;;;;;;5074664;28;20445;-56
2023/04/26 11:01:48;;;;;;;4.23;2.40;;;18.60;37.50;;;;;;5074607;28;20457;-56
2023/04/26 11:04:16;;;;;;;5.33;2.47;;;18.50;37.10;;;;;;5074515;28;20492;-56
2023/04/26 11:06:49;;;;;;;7.70;2.40;;;18.50;36.60;;;;;;5074479;28;20449;-56
2023/04/26 11:09:38;;;;;;;5.27;2.40;;;18.40;35.60;;;;;;5074270;28;20456;-56
2023/04/26 11:12:05;;;;;;;6.80;2.53;;;18.50;36.40;;;;;;5074644;28;20443;-56
2023/04/26 11:14:34;;;;;;;4.00;3.07;;;18.40;36.30;;;;;;5074311;28;20517;-56
2023/04/26 11:17:04;;;;;;;7.47;4.13;;;18.40;35.70;;;;;;5074334;28;20456;-56
2023/04/26 11:19:31;;;;;;;3.50;2.83;;;18.50;36.10;;;;;;5074258;28;20464;-56
2023/04/26 11:21:58;;;;;;;5.97;2.80;;;18.70;36.00;;;;;;5074176;28;20520;-56
2023/04/26 11:24:25;;;;;;;4.97;2.90;;;18.70;35.60;;;;;;5074003;28;20488;-56
2023/04/26 11:26:52;;;;;;;7.30;2.87;;;18.70;36.10;;;;;;5074058;28;20448;-56
2023/04/26 11:29:19;;;;;;;9.50;2.63;;;18.50;35.90;;;;;;5073722;28;20930;-56
2023/04/26 11:31:53;;;;;;;5.13;3.20;;;18.40;36.50;;;;;;5074013;28;20646;-56
2023/04/26 11:34:23;;;;;;;7.20;3.03;;;18.30;34.80;;;;;;5073935;28;20456;-56
2023/04/26 11:36:52;;;;;;;9.23;3.10;;;18.20;34.00;;;;;;5073928;28;20520;-56
2023/04/26 11:39:21;;;;;;;6.70;2.80;;;18.10;35.20;;;;;;5073868;28;20483;-56
2023/04/26 11:41:48;;;;;;;6.23;2.43;;;18.00;35.90;;;;;;5073879;28;20511;-57
2023/04/26 11:44:18;;;;;;;5.47;2.60;;;18.10;36.40;;;;;;5073722;28;20495;-57
2023/04/26 11:46:46;;;;;;;6.90;3.00;;;18.20;35.50;;;;;;5074623;28;20533;-56
2023/04/26 11:49:15;;;;;;;5.67;3.50;;;18.20;36.10;;;;;;5073696;28;20456;-56
2023/04/26 11:51:42;;;;;;;6.37;2.70;;;18.10;36.60;;;;;;5073039;28;20862;-57
2023/04/26 11:54:09;;;;;;;7.17;2.90;;;18.10;35.80;;;;;;5073563;28;20487;-57
2023/04/26 11:56:36;;;;;;;4.00;2.47;;;18.30;35.90;;;;;;5073577;28;20460;-57
2023/04/26 11:59:02;;;;;;;5.20;1.90;;;18.50;35.90;;;;;;5073295;28;20460;-57
2023/04/26 12:01:30;;;;;;;7.00;3.17;;;18.50;35.50;;;;;;5073507;28;20460;-57
2023/04/26 12:03:59;;;;;;;5.73;2.70;;;18.60;35.20;;;;;;5073338;28;20487;-57
2023/04/26 12:06:31;;;;;;;8.10;2.97;;;18.40;35.40;;;;;;5073502;28;20491;-57
2023/04/26 12:08:58;;;;;;;8.13;3.00;;;18.20;36.30;;;;;;5073360;28;20471;-57
2023/04/26 12:11:25;;;;;;;5.93;2.30;;;18.10;37.20;;;;;;5074322;28;20847;-56
2023/04/26 12:13:52;;;;;;;3.40;2.97;;;18.10;36.90;;;;;;5073413;28;20916;-57
2023/04/26 12:16:19;;;;;;;6.17;2.80;;;18.10;36.60;;;;;;5073440;28;20453;-56
2023/04/26 12:18:50;;;;;;;5.33;3.10;;;18.10;36.80;;;;;;5073128;28;20957;-57
2023/04/26 12:21:17;;;;;;;6.90;2.90;;;17.80;36.10;;;;;;5073365;28;20471;-57
2023/04/26 12:23:46;;;;;;;8.53;2.80;;;17.70;37.30;;;;;;5073234;28;20496;-56
2023/04/26 12:26:14;;;;;;;5.57;2.10;;;17.80;37.90;;;;;;5072989;28;20453;-57
2023/04/26 12:28:41;;;;;;;7.53;2.70;;;17.90;38.20;;;;;;5072912;28;20456;-57
2023/04/26 12:31:08;;;;;;;4.03;2.83;;;18.00;36.20;;;;;;5073106;28;21042;-57
2023/04/26 12:33:34;;;;;;;5.67;2.90;;;18.20;35.40;;;;;;5072978;28;20465;-56
2023/04/26 12:36:07;;;;;;;3.97;2.60;;;18.50;35.30;;;;;;5073200;28;20452;-57
2023/04/26 12:38:33;;;;;;;6.50;2.30;;;18.90;35.60;;;;;;5073174;28;20452;-57
2023/04/26 12:41:01;;;;;;;4.30;2.20;;;19.50;36.90;;;;;;5073201;28;20449;-57
2023/04/26 12:43:28;;;;;;;5.33;2.23;;;20.30;34.10;;;;;;5072724;28;21001;-57
2023/04/26 12:45:55;;;;;;;7.40;2.50;;;21.20;34.40;;;;;;5072950;28;20460;-57
2023/04/26 12:48:22;;;;;;;3.90;2.40;;;22.30;34.20;;;;;;5072657;28;20452;-59
2023/04/26 12:50:49;;;;;;;5.87;2.40;;;23.70;32.20;;;;;;5052951;28;20540;-57
2023/04/26 12:53:15;;;;;;;3.73;1.90;;;25.20;29.50;;;;;;5052932;28;20469;-57
2023/04/26 12:55:42;;;;;;;6.23;2.90;;;26.90;28.30;;;;;;5052977;28;20795;-57